Fort Severn Airport
CYER : now visible

Airfield :











YOU CAN JOIN US ON...

 
LOGIN :

Register | Disclaimer

   EN    FR    IT 

 









Legend :    VFR   Marginal VFR   IFR   Intensive IFR   Very Intensive IFR
Visi :
Ceiling :
>= 8 km
>= 3000ft
5 to 8 km
1000 to 3000 ft
1500m to 5 km
500 to 1000 ft
800 to 1500m
200 to 500 ft
< 800m
< 200 ft
Symbols :   Thunderstorms  Fog  Heavy snow  Heavy precipitations  Wind > 20 kt







- Airport Elevation : 48 ft
- IATA code : YER


CYER - Fort Severn

CURRENT METAR :
  • 200814Z AUTO 36006KT 3SM -SN OVC007 M01/M01 A3020 RMK SLP229

EXPIRED METARs :
  • 200800Z AUTO 34005KT 1 1/2SM -SN OVC007 M01/M01 A3020 RMK SLP230
  • 200749Z AUTO 34006KT 2SM -SN OVC007 M01/M01 A3020 RMK ICG PAST HR SLP230
  • 200746Z AUTO 34006KT 2 1/2SM BR OVC005 M01/M01 A3020 RMK ICG PAST HR SLP229
  • 200728Z AUTO 35008KT 5SM BR OVC005 M02/M02 A3021 RMK ICG PAST HR SLP231
  • 200725Z AUTO 36009KT 320V020 7SM OVC005 M02/M02 A3020 RMK ICG PAST HR SLP230
  • 200706Z AUTO 35009KT 2SM BR OVC005 M02/M02 A3021 RMK ICG PAST HR SLP232
  • 200654Z AUTO 35009KT 310V010 3SM -SN BKN005 OVC011 M02/M02 A3021 RMK ICG INTMT SLP231
  • 200642Z AUTO 35006KT 1SM -SN OVC005 M01/M01 A3021 RMK ICG SLP231
  • 200635Z AUTO 01007KT 1 1/4SM BR OVC005 M02/M02 A3021 RMK ICG INTMT SLP231
  • 200623Z AUTO 35009KT 3/4SM -FZRA BR OVC005 M01/M01 A3021 RMK ICG SLP232
  • 200617Z AUTO 36007KT 1SM -FZRA -SN OVC005 M01/M01 A3021 RMK ICG SLP232
  • 200608Z AUTO 36007KT 1 1/4SM BR OVC005 M01/M01 A3021 RMK SLP233
  • 200548Z AUTO 35009KT 6SM BR OVC005 M01/M01 A3021 RMK ICG INTMT SLP233
  • 200533Z AUTO 34008KT 2 1/4SM BR OVC005 M02/M02 A3021 RMK ICG PAST HR SLP233
  • 200526Z AUTO 35009KT 9SM BKN005 OVC012 M02/M02 A3021 RMK ICG PAST HR SLP234

Expired Forecast.
CZWG FIR / North America



MET'MAP, your aeronautical weather chart ! - Copyright ORBIFLY December 2007 - Disclaimer

ORBIFLY MET'MAP TEAM :

Programming & Development : Alexandra Zaïnal
Concept & Development : Baudouin d'Aumeries
Co-Development & Prog : Marc-Olivier Méhu
Technical & hardware support : Manuel Goepfert

Contact : metmap@orbifly.com




SOURCES & CREDITS :

   NOAA       Earth
Advisory